Terminal Aerodrome Forecast
Issued by NWS

Home | Current Version | Previous Version | Text Only | Print | Product List | Glossary On
Versions: 1 2 3 4 5 6 7 8 9 10 11 12 13 14 15 16 17 18 19 20 21 22 23 24 25 26
000
FTUS43 KGLD 201510 AAA
TAFMCK
TAF AMD
KMCK 201510Z 2015/2112 33003KT 2SM BR BKN004
      TEMPO 2015/2017 3SM BKN020
     FM201800 19005KT P6SM OVC008
     FM202000 21006KT P6SM OVC020=

USA.gov is the U.S. government's official web portal to all federal, state and local government web resources and services.